sensor_id;sensor_type;location;lat;lon;timestamp;P1;durP1;ratioP1;P2;durP2;ratioP2
76837;SDS011;65797;47.352;8.164;2023-03-13T00:02:10;1.63;;;1.53;;
76837;SDS011;65797;47.352;8.164;2023-03-13T00:04:35;1.60;;;1.50;;
76837;SDS011;65797;47.352;8.164;2023-03-13T00:07:01;2.30;;;2.10;;
76837;SDS011;65797;47.352;8.164;2023-03-13T00:09:27;2.60;;;1.80;;
76837;SDS011;65797;47.352;8.164;2023-03-13T00:11:52;2.00;;;1.60;;
76837;SDS011;65797;47.352;8.164;2023-03-13T00:14:18;2.00;;;1.50;;
76837;SDS011;65797;47.352;8.164;2023-03-13T00:16:44;1.80;;;1.70;;
76837;SDS011;65797;47.352;8.164;2023-03-13T00:19:10;1.60;;;1.50;;
76837;SDS011;65797;47.352;8.164;2023-03-13T00:21:35;2.03;;;1.50;;
76837;SDS011;65797;47.352;8.164;2023-03-13T00:24:02;2.00;;;1.80;;
76837;SDS011;65797;47.352;8.164;2023-03-13T00:26:28;2.93;;;1.80;;
76837;SDS011;65797;47.352;8.164;2023-03-13T00:28:55;3.33;;;1.40;;
76837;SDS011;65797;47.352;8.164;2023-03-13T00:31:25;1.70;;;1.60;;
76837;SDS011;65797;47.352;8.164;2023-03-13T00:34:02;2.23;;;1.53;;
76837;SDS011;65797;47.352;8.164;2023-03-13T00:36:29;1.87;;;1.77;;
76837;SDS011;65797;47.352;8.164;2023-03-13T00:38:57;2.40;;;1.80;;
76837;SDS011;65797;47.352;8.164;2023-03-13T00:41:27;1.90;;;1.70;;
76837;SDS011;65797;47.352;8.164;2023-03-13T00:43:54;2.60;;;1.57;;
76837;SDS011;65797;47.352;8.164;2023-03-13T00:46:21;5.87;;;1.73;;
76837;SDS011;65797;47.352;8.164;2023-03-13T00:48:49;1.67;;;1.57;;
76837;SDS011;65797;47.352;8.164;2023-03-13T00:51:16;1.63;;;1.53;;
76837;SDS011;65797;47.352;8.164;2023-03-13T00:53:43;3.80;;;2.00;;
76837;SDS011;65797;47.352;8.164;2023-03-13T00:56:10;2.50;;;1.93;;
76837;SDS011;65797;47.352;8.164;2023-03-13T00:58:39;1.60;;;1.50;;
76837;SDS011;65797;47.352;8.164;2023-03-13T01:01:07;1.60;;;1.50;;
76837;SDS011;65797;47.352;8.164;2023-03-13T01:03:42;3.80;;;1.90;;
76837;SDS011;65797;47.352;8.164;2023-03-13T01:06:11;2.23;;;1.90;;
76837;SDS011;65797;47.352;8.164;2023-03-13T01:08:38;2.23;;;1.90;;
76837;SDS011;65797;47.352;8.164;2023-03-13T01:11:23;2.77;;;1.93;;
76837;SDS011;65797;47.352;8.164;2023-03-13T01:13:55;1.80;;;1.70;;
76837;SDS011;65797;47.352;8.164;2023-03-13T01:16:22;3.90;;;2.47;;
76837;SDS011;65797;47.352;8.164;2023-03-13T01:18:51;3.00;;;1.97;;
76837;SDS011;65797;47.352;8.164;2023-03-13T01:21:20;3.10;;;2.03;;
76837;SDS011;65797;47.352;8.164;2023-03-13T01:23:48;2.07;;;1.70;;
76837;SDS011;65797;47.352;8.164;2023-03-13T01:26:15;1.60;;;1.50;;
76837;SDS011;65797;47.352;8.164;2023-03-13T01:28:41;1.93;;;1.73;;
76837;SDS011;65797;47.352;8.164;2023-03-13T01:31:17;2.83;;;1.87;;
76837;SDS011;65797;47.352;8.164;2023-03-13T01:33:49;2.20;;;2.00;;
76837;SDS011;65797;47.352;8.164;2023-03-13T01:36:16;2.50;;;1.50;;
76837;SDS011;65797;47.352;8.164;2023-03-13T01:38:43;3.30;;;2.37;;
76837;SDS011;65797;47.352;8.164;2023-03-13T01:41:11;2.33;;;1.87;;
76837;SDS011;65797;47.352;8.164;2023-03-13T01:43:37;4.00;;;1.77;;
76837;SDS011;65797;47.352;8.164;2023-03-13T01:48:36;1.50;;;1.40;;
76837;SDS011;65797;47.352;8.164;2023-03-13T01:56:51;2.90;;;2.60;;
76837;SDS011;65797;47.352;8.164;2023-03-13T01:59:26;4.40;;;2.67;;
76837;SDS011;65797;47.352;8.164;2023-03-13T02:01:56;7.50;;;3.30;;
76837;SDS011;65797;47.352;8.164;2023-03-13T02:04:25;3.60;;;2.87;;
76837;SDS011;65797;47.352;8.164;2023-03-13T02:06:55;4.47;;;2.90;;
76837;SDS011;65797;47.352;8.164;2023-03-13T02:09:25;6.73;;;3.30;;
76837;SDS011;65797;47.352;8.164;2023-03-13T02:12:06;2.13;;;1.93;;
76837;SDS011;65797;47.352;8.164;2023-03-13T02:14:42;6.03;;;2.60;;
76837;SDS011;65797;47.352;8.164;2023-03-13T02:17:10;3.63;;;2.33;;
76837;SDS011;65797;47.352;8.164;2023-03-13T02:19:39;3.53;;;1.80;;
76837;SDS011;65797;47.352;8.164;2023-03-13T02:25:09;2.53;;;1.60;;
76837;SDS011;65797;47.352;8.164;2023-03-13T02:28:08;1.43;;;1.30;;
76837;SDS011;65797;47.352;8.164;2023-03-13T02:30:47;3.83;;;1.33;;
76837;SDS011;65797;47.352;8.164;2023-03-13T02:33:15;1.90;;;1.20;;
76837;SDS011;65797;47.352;8.164;2023-03-13T02:35:43;1.70;;;1.20;;
76837;SDS011;65797;47.352;8.164;2023-03-13T02:38:11;5.80;;;1.50;;
76837;SDS011;65797;47.352;8.164;2023-03-13T02:40:44;3.23;;;1.40;;
76837;SDS011;65797;47.352;8.164;2023-03-13T02:43:16;1.40;;;1.30;;
76837;SDS011;65797;47.352;8.164;2023-03-13T02:48:33;1.73;;;1.43;;
76837;SDS011;65797;47.352;8.164;2023-03-13T02:51:04;1.47;;;1.10;;
76837;SDS011;65797;47.352;8.164;2023-03-13T02:53:35;1.03;;;1.00;;
76837;SDS011;65797;47.352;8.164;2023-03-13T02:56:02;1.30;;;1.20;;
76837;SDS011;65797;47.352;8.164;2023-03-13T02:58:34;1.20;;;1.10;;
76837;SDS011;65797;47.352;8.164;2023-03-13T03:01:04;4.50;;;1.20;;
76837;SDS011;65797;47.352;8.164;2023-03-13T03:03:32;10.73;;;1.47;;
76837;SDS011;65797;47.352;8.164;2023-03-13T03:06:00;3.30;;;1.43;;
76837;SDS011;65797;47.352;8.164;2023-03-13T03:08:26;4.80;;;2.07;;
76837;SDS011;65797;47.352;8.164;2023-03-13T03:10:51;2.87;;;1.10;;
76837;SDS011;65797;47.352;8.164;2023-03-13T03:13:17;0.90;;;0.80;;
76837;SDS011;65797;47.352;8.164;2023-03-13T03:15:43;1.83;;;1.07;;
76837;SDS011;65797;47.352;8.164;2023-03-13T03:18:09;2.10;;;1.30;;
76837;SDS011;65797;47.352;8.164;2023-03-13T03:20:35;3.37;;;1.20;;
76837;SDS011;65797;47.352;8.164;2023-03-13T03:23:00;2.20;;;1.00;;
76837;SDS011;65797;47.352;8.164;2023-03-13T03:25:26;1.37;;;1.27;;
76837;SDS011;65797;47.352;8.164;2023-03-13T03:27:52;1.90;;;1.00;;
76837;SDS011;65797;47.352;8.164;2023-03-13T03:30:17;1.80;;;0.90;;
76837;SDS011;65797;47.352;8.164;2023-03-13T03:32:43;2.07;;;1.10;;
76837;SDS011;65797;47.352;8.164;2023-03-13T03:35:09;1.33;;;0.90;;
76837;SDS011;65797;47.352;8.164;2023-03-13T03:37:35;1.23;;;1.00;;
76837;SDS011;65797;47.352;8.164;2023-03-13T03:40:01;1.10;;;1.10;;
76837;SDS011;65797;47.352;8.164;2023-03-13T03:42:29;2.37;;;1.10;;
76837;SDS011;65797;47.352;8.164;2023-03-13T03:44:55;2.30;;;1.20;;
76837;SDS011;65797;47.352;8.164;2023-03-13T03:47:21;3.70;;;1.10;;
76837;SDS011;65797;47.352;8.164;2023-03-13T03:49:46;4.70;;;1.27;;
76837;SDS011;65797;47.352;8.164;2023-03-13T03:52:12;1.90;;;1.00;;
76837;SDS011;65797;47.352;8.164;2023-03-13T03:54:38;2.50;;;1.03;;
76837;SDS011;65797;47.352;8.164;2023-03-13T03:57:04;2.13;;;1.00;;
76837;SDS011;65797;47.352;8.164;2023-03-13T03:59:29;1.07;;;1.00;;
76837;SDS011;65797;47.352;8.164;2023-03-13T04:01:55;2.17;;;1.10;;
76837;SDS011;65797;47.352;8.164;2023-03-13T04:04:21;6.47;;;0.97;;
76837;SDS011;65797;47.352;8.164;2023-03-13T04:06:47;0.83;;;0.83;;
76837;SDS011;65797;47.352;8.164;2023-03-13T04:09:12;1.53;;;0.80;;
76837;SDS011;65797;47.352;8.164;2023-03-13T04:11:38;1.30;;;1.20;;
76837;SDS011;65797;47.352;8.164;2023-03-13T04:14:04;1.50;;;1.00;;
76837;SDS011;65797;47.352;8.164;2023-03-13T04:16:30;1.30;;;1.20;;
76837;SDS011;65797;47.352;8.164;2023-03-13T04:18:56;0.80;;;0.80;;
76837;SDS011;65797;47.352;8.164;2023-03-13T04:21:21;1.10;;;0.80;;
76837;SDS011;65797;47.352;8.164;2023-03-13T04:23:50;1.57;;;1.00;;
76837;SDS011;65797;47.352;8.164;2023-03-13T04:26:16;1.47;;;0.93;;
76837;SDS011;65797;47.352;8.164;2023-03-13T04:28:42;1.40;;;0.97;;
76837;SDS011;65797;47.352;8.164;2023-03-13T04:41:28;0.93;;;0.80;;
76837;SDS011;65797;47.352;8.164;2023-03-13T04:43:54;2.27;;;0.90;;
76837;SDS011;65797;47.352;8.164;2023-03-13T04:46:19;1.10;;;1.00;;
76837;SDS011;65797;47.352;8.164;2023-03-13T04:48:45;0.83;;;0.83;;
76837;SDS011;65797;47.352;8.164;2023-03-13T04:51:11;0.90;;;0.90;;
76837;SDS011;65797;47.352;8.164;2023-03-13T04:53:37;4.27;;;0.90;;
76837;SDS011;65797;47.352;8.164;2023-03-13T04:56:03;1.17;;;1.00;;
76837;SDS011;65797;47.352;8.164;2023-03-13T04:58:28;2.33;;;1.00;;
76837;SDS011;65797;47.352;8.164;2023-03-13T05:00:54;2.33;;;1.30;;
76837;SDS011;65797;47.352;8.164;2023-03-13T05:03:21;0.80;;;0.80;;
76837;SDS011;65797;47.352;8.164;2023-03-13T05:05:47;2.23;;;1.07;;
76837;SDS011;65797;47.352;8.164;2023-03-13T05:08:13;2.10;;;0.87;;
76837;SDS011;65797;47.352;8.164;2023-03-13T05:10:40;1.10;;;0.97;;
76837;SDS011;65797;47.352;8.164;2023-03-13T05:13:07;0.90;;;0.90;;
76837;SDS011;65797;47.352;8.164;2023-03-13T05:15:32;0.93;;;0.90;;
76837;SDS011;65797;47.352;8.164;2023-03-13T05:17:58;1.10;;;0.90;;
76837;SDS011;65797;47.352;8.164;2023-03-13T05:20:24;1.00;;;0.90;;
76837;SDS011;65797;47.352;8.164;2023-03-13T05:22:49;2.20;;;1.10;;
76837;SDS011;65797;47.352;8.164;2023-03-13T05:25:15;3.03;;;0.87;;
76837;SDS011;65797;47.352;8.164;2023-03-13T05:27:41;1.33;;;0.90;;
76837;SDS011;65797;47.352;8.164;2023-03-13T05:30:07;1.67;;;1.10;;
76837;SDS011;65797;47.352;8.164;2023-03-13T05:32:33;1.00;;;0.90;;
76837;SDS011;65797;47.352;8.164;2023-03-13T05:34:59;3.13;;;1.20;;
76837;SDS011;65797;47.352;8.164;2023-03-13T05:37:25;0.90;;;0.90;;
76837;SDS011;65797;47.352;8.164;2023-03-13T05:39:51;1.50;;;0.80;;
76837;SDS011;65797;47.352;8.164;2023-03-13T05:42:16;1.10;;;1.00;;
76837;SDS011;65797;47.352;8.164;2023-03-13T05:44:42;2.63;;;1.00;;
76837;SDS011;65797;47.352;8.164;2023-03-13T06:03:08;0.80;;;0.80;;
76837;SDS011;65797;47.352;8.164;2023-03-13T06:05:34;0.80;;;0.80;;
76837;SDS011;65797;47.352;8.164;2023-03-13T06:08:01;1.53;;;0.93;;
76837;SDS011;65797;47.352;8.164;2023-03-13T06:10:29;1.10;;;1.10;;
76837;SDS011;65797;47.352;8.164;2023-03-13T06:12:55;1.10;;;1.10;;
76837;SDS011;65797;47.352;8.164;2023-03-13T06:15:21;1.50;;;1.00;;
76837;SDS011;65797;47.352;8.164;2023-03-13T06:17:47;1.43;;;1.07;;
76837;SDS011;65797;47.352;8.164;2023-03-13T06:20:13;1.33;;;1.23;;
76837;SDS011;65797;47.352;8.164;2023-03-13T06:22:39;1.20;;;1.10;;
76837;SDS011;65797;47.352;8.164;2023-03-13T06:25:05;0.67;;;0.67;;
76837;SDS011;65797;47.352;8.164;2023-03-13T07:01:21;1.10;;;1.10;;
76837;SDS011;65797;47.352;8.164;2023-03-13T07:03:47;0.83;;;0.80;;
76837;SDS011;65797;47.352;8.164;2023-03-13T07:06:13;1.33;;;0.90;;
76837;SDS011;65797;47.352;8.164;2023-03-13T07:08:39;1.27;;;0.90;;
76837;SDS011;65797;47.352;8.164;2023-03-13T07:11:06;0.80;;;0.80;;
76837;SDS011;65797;47.352;8.164;2023-03-13T07:13:33;1.57;;;0.80;;
76837;SDS011;65797;47.352;8.164;2023-03-13T07:16:00;0.93;;;0.77;;
76837;SDS011;65797;47.352;8.164;2023-03-13T07:18:36;3.63;;;2.27;;
76837;SDS011;65797;47.352;8.164;2023-03-13T07:21:02;1.13;;;0.80;;
76837;SDS011;65797;47.352;8.164;2023-03-13T07:23:29;0.70;;;0.70;;
76837;SDS011;65797;47.352;8.164;2023-03-13T07:25:57;0.97;;;0.80;;
76837;SDS011;65797;47.352;8.164;2023-03-13T07:28:25;1.43;;;0.73;;
76837;SDS011;65797;47.352;8.164;2023-03-13T07:30:51;1.60;;;0.97;;
76837;SDS011;65797;47.352;8.164;2023-03-13T07:33:17;0.80;;;0.80;;
76837;SDS011;65797;47.352;8.164;2023-03-13T08:41:58;0.80;;;0.80;;
76837;SDS011;65797;47.352;8.164;2023-03-13T08:44:27;0.70;;;0.70;;
76837;SDS011;65797;47.352;8.164;2023-03-13T09:01:04;2.00;;;0.63;;
76837;SDS011;65797;47.352;8.164;2023-03-13T09:03:40;2.93;;;0.60;;
76837;SDS011;65797;47.352;8.164;2023-03-13T09:06:08;0.70;;;0.70;;
76837;SDS011;65797;47.352;8.164;2023-03-13T09:11:11;1.67;;;0.87;;
76837;SDS011;65797;47.352;8.164;2023-03-13T09:13:39;2.63;;;1.50;;
76837;SDS011;65797;47.352;8.164;2023-03-13T09:16:13;0.70;;;0.70;;
76837;SDS011;65797;47.352;8.164;2023-03-13T09:18:40;0.77;;;0.60;;
76837;SDS011;65797;47.352;8.164;2023-03-13T09:21:17;1.43;;;1.20;;
76837;SDS011;65797;47.352;8.164;2023-03-13T09:23:44;1.20;;;0.80;;
76837;SDS011;65797;47.352;8.164;2023-03-13T09:26:13;0.70;;;0.70;;
76837;SDS011;65797;47.352;8.164;2023-03-13T09:28:43;2.43;;;0.80;;
76837;SDS011;65797;47.352;8.164;2023-03-13T09:31:13;2.40;;;0.70;;
76837;SDS011;65797;47.352;8.164;2023-03-13T09:39:01;0.80;;;0.70;;
76837;SDS011;65797;47.352;8.164;2023-03-13T10:43:59;0.70;;;0.70;;
76837;SDS011;65797;47.352;8.164;2023-03-13T10:51:45;0.77;;;0.70;;
76837;SDS011;65797;47.352;8.164;2023-03-13T10:54:38;2.33;;;0.80;;
76837;SDS011;65797;47.352;8.164;2023-03-13T10:59:42;1.07;;;0.63;;
76837;SDS011;65797;47.352;8.164;2023-03-13T11:04:49;0.90;;;0.87;;
76837;SDS011;65797;47.352;8.164;2023-03-13T11:07:26;0.67;;;0.67;;
76837;SDS011;65797;47.352;8.164;2023-03-13T17:56:31;3.40;;;1.70;;
76837;SDS011;65797;47.352;8.164;2023-03-13T17:59:03;1.20;;;1.10;;
76837;SDS011;65797;47.352;8.164;2023-03-13T18:12:38;4.00;;;1.23;;
76837;SDS011;65797;47.352;8.164;2023-03-13T18:15:03;1.30;;;1.20;;
76837;SDS011;65797;47.352;8.164;2023-03-13T18:17:30;1.50;;;1.10;;
76837;SDS011;65797;47.352;8.164;2023-03-13T18:19:55;1.27;;;1.17;;
76837;SDS011;65797;47.352;8.164;2023-03-13T18:22:21;2.70;;;0.97;;
76837;SDS011;65797;47.352;8.164;2023-03-13T18:24:47;3.43;;;1.43;;
76837;SDS011;65797;47.352;8.164;2023-03-13T18:29:48;1.33;;;1.20;;
76837;SDS011;65797;47.352;8.164;2023-03-13T18:32:15;1.77;;;1.43;;
76837;SDS011;65797;47.352;8.164;2023-03-13T18:34:42;1.63;;;1.30;;
